Aeroporto :
LOGIN :

Iscrizione | Disclaimer

   EN    FR    IT 

 










Sommario :    VFR   VFR Marginale   IFR   IFR Intensivo   IFR Molto Intensivo
Visibilità : 
Base nubi : 
>= 8 km
>= 3000ft
5 / 8 km
1000 / 3000 ft
1500m / 5 km
500 / 1000 ft
800 / 1500m
200 / 500 ft
< 800m
< 200 ft
Simboli :   Temporali  Nebbia  Neve Forte  Precipitazioni Forti  Vento > 20 kt
SIGMETs :   Varie  Temporali  Ghiacco  Turbolenza  Onda orograficha  Ceneri Vulcaniche






- Altitudine del aeroporto : 359 ft
- Codice IATA : DEB


LHDC - Debrecen

ULTIMO METAR :
  • 240845Z AUTO 22007KT 200V260 9999 -SHRA BKN006 11/10 Q1002 BECMG SCT008 BKN030

METARs OBSOLETI :
  • 240815Z AUTO 23007KT 9999 SCT008 BKN024 11/10 Q1002 NOSIG
  • 240745Z AUTO 23008KT 200V270 9999 BKN007 BKN026 BKN038 11/10 Q1002 BECMG SCT008 BKN040
  • 240715Z AUTO 23007KT 9999 BKN007 BKN038 11/10 Q1002 BECMG SCT005 BKN040
  • 240645Z AUTO VRB03KT 9999 -RA BKN004 OVC054 11/10 Q1002 RERA TEMPO SCT006 BKN070
  • 240615Z AUTO 00000KT 5000 -SHRA OVC006 10/10 Q1002 RESHRA NOSIG
  • 240545Z AUTO VRB02KT 9999 -SHRA BKN004 OVC026 10/10 Q1002 NOSIG
  • 240515Z AUTO 03003KT 9999 -RA BKN006 OVC015 10/10 Q1002 RERA NOSIG
  • 240445Z AUTO 02003KT 340V050 4200 RA OVC004 10/10 Q1002 TEMPO 7000 -RA BKN005 OVC010
  • 240415Z AUTO 06003KT 020V080 4800 RA BKN006 10/10 Q1002 RERA TEMPO 2500 RA BKN004 OVC010

TAF TAF LHDC
Valido dal 24 a 09 ore il 24 a 18 ore UTC


240815Z 2409/2418 24010KT 9999 SCT008 OVC025
TEMPO 2409/2418 2500 SHRA BKN008 SCT015CB OVC030
PROB40
TEMPO 2411/2418 22016G26KT TSRA



MetMap, La meteo Aeronautica in un colpo d'occhio ! - Copyright ORBIFLY Dicembre 2007 - Disclaimer

ORBIFLY MET'MAP TEAM :

Programmazione e sviluppo : Alexandra Zaïnal
Concezione : Baudouin d'Aumeries
Supporto tecnico e logistico : Manuel Goepfert
Aiuto : Marc-Olivier Méhu
Aiuto per la traduzione : Arnaldo La Scala




FONTI E CREDITI :

   NOAA